Airfield :
LOGIN :

Register | Disclaimer

   EN    FR    IT 

 










Legend :    VFR   Marginal VFR   IFR   Intensive IFR   Very Intensive IFR
Visi :
Ceiling :
>= 8 km
>= 3000ft
5 to 8 km
1000 to 3000 ft
1500m to 5 km
500 to 1000 ft
800 to 1500m
200 to 500 ft
< 800m
< 200 ft
Symbols :   Thunderstorms  Fog  Heavy snow  Heavy precipitations  Wind > 20 kt
SIGMETs :     Misc.  Thunderstorms  Icing  Turbulence  Mountain Waves  Volcanic Ashes







- Airport Elevation : 2356 ft


LZTT - Poprad Tatry

CURRENT METAR :
  • 121330Z 22013KT 9999 FEW016 OVC045 07/03 Q1007 NOSIG

EXPIRED METARs :
  • 121300Z 23014KT 9999 SCT026 OVC050 07/04 Q1006 NOSIG
  • 121230Z 25009KT 9999 -RA SCT023 OVC040 08/05 Q1005 NOSIG
  • 121200Z 23010KT 9999 -RA OVC023 09/05 Q1005 NOSIG
  • 121130Z 24011KT 9999 OVC028 09/04 Q1004 NOSIG
  • 121100Z 23017G27KT 9999 OVC028 10/05 Q1004 NOSIG

TAF TAF LZTT
Valid from the 12 at 12:00 until the 13 at 12:00 UTC


121100Z 1212/1312 25012KT 9999 BKN030
TEMPO 1212/1216 -RA
BECMG 1214/1216 24005KT
BECMG 1222/1300 VRB02KT 5000 -SN SCT010 OVC025
TEMPO 1300/1308 2000 SN SCT004 OVC015
BECMG 1309/1311 07004KT 9999 NSW SCT035 BKN070
No reported NOTAMs for that airfield.



MET'MAP, your aeronautical weather chart ! - Copyright ORBIFLY December 2007 - Disclaimer

ORBIFLY MET'MAP TEAM :

Programming & Development : Alexandra Zaïnal
Concept & Development : Baudouin d'Aumeries
Co-Development & Prog : Marc-Olivier Méhu
Technical & hardware support : Manuel Goepfert

Contact : metmap@orbifly.com




SOURCES & CREDITS :

   NOAA